createdAt,value
2022-09-23T00:00:00.260Z,12.00
2022-09-23T00:00:10.353Z,12.50
2022-09-23T00:00:20.434Z,12.10
2022-09-23T00:00:30.532Z,11.30
2022-09-23T00:00:40.603Z,11.10
2022-09-23T00:00:50.652Z,11.60
2022-09-23T00:01:00.800Z,11.80
2022-09-23T00:01:10.969Z,11.70
2022-09-23T00:01:20.974Z,11.60
2022-09-23T00:01:31.121Z,11.40
2022-09-23T00:01:41.203Z,11.60
2022-09-23T00:01:51.203Z,11.50
2022-09-23T00:02:01.322Z,12.10
2022-09-23T00:02:11.446Z,11.90
2022-09-23T00:02:21.571Z,12.10
2022-09-23T00:02:31.693Z,11.90
2022-09-23T00:02:41.831Z,12.20
2022-09-23T00:02:52.016Z,12.10
2022-09-23T00:03:01.987Z,12.00
2022-09-23T00:03:12.051Z,11.80
2022-09-23T00:03:22.132Z,11.50
2022-09-23T00:03:32.215Z,11.40
2022-09-23T00:03:42.303Z,11.30
2022-09-23T00:03:52.393Z,11.70
2022-09-23T00:04:02.492Z,11.40
2022-09-23T00:04:12.563Z,11.50
2022-09-23T00:04:22.661Z,11.40
2022-09-23T00:04:32.733Z,11.40
2022-09-23T00:04:42.825Z,10.90
2022-09-23T00:04:52.903Z,10.90
2022-09-23T00:05:02.991Z,11.10
2022-09-23T00:05:13.082Z,11.70
2022-09-23T00:05:23.169Z,11.30
2022-09-23T00:05:33.243Z,11.70
2022-09-23T00:05:43.323Z,11.20
2022-09-23T00:05:53.475Z,11.40
2022-09-23T00:06:03.585Z,11.00
2022-09-23T00:06:13.740Z,11.10
2022-09-23T00:06:23.843Z,11.00
2022-09-23T00:06:33.923Z,11.30
2022-09-23T00:06:44.001Z,11.50
2022-09-23T00:06:54.079Z,11.50
2022-09-23T00:07:04.163Z,11.30
2022-09-23T00:07:14.252Z,11.50
2022-09-23T00:07:24.324Z,11.90
2022-09-23T00:07:34.403Z,11.60
2022-09-23T00:07:44.503Z,11.40
2022-09-23T00:07:54.573Z,11.30
2022-09-23T00:08:04.643Z,11.40
2022-09-23T00:08:14.721Z,11.40
2022-09-23T00:08:24.803Z,11.30
2022-09-23T00:08:34.875Z,11.50
2022-09-23T00:08:44.950Z,11.90
2022-09-23T00:08:55.012Z,12.20
2022-09-23T00:09:05.244Z,12.30
2022-09-23T00:09:15.184Z,12.40
2022-09-23T00:09:25.262Z,11.90
2022-09-23T00:09:35.331Z,11.30
2022-09-23T00:09:45.423Z,10.80
2022-09-23T00:09:55.503Z,10.90
2022-09-23T00:10:05.611Z,11.30
2022-09-23T00:10:15.692Z,11.00
2022-09-23T00:10:25.797Z,11.30
2022-09-23T00:10:35.883Z,11.20
2022-09-23T00:10:45.960Z,11.60
2022-09-23T00:10:56.022Z,11.60
2022-09-23T00:11:06.105Z,11.50
2022-09-23T00:11:16.193Z,11.60
2022-09-23T00:11:26.276Z,11.00
2022-09-23T00:11:36.353Z,10.80
2022-09-23T00:11:46.443Z,10.50
2022-09-23T00:11:56.503Z,11.10
2022-09-23T00:12:09.078Z,11.40
2022-09-23T00:12:16.609Z,11.70
2022-09-23T00:12:26.722Z,12.30
2022-09-23T00:12:36.790Z,13.20
2022-09-23T00:12:46.872Z,13.60
2022-09-23T00:12:56.952Z,13.80
2022-09-23T00:13:07.019Z,13.70
2022-09-23T00:13:17.082Z,14.80
2022-09-23T00:13:27.161Z,14.50
2022-09-23T00:13:37.224Z,14.80
2022-09-23T00:13:47.306Z,14.90
2022-09-23T00:13:57.376Z,15.90
2022-09-23T00:14:07.442Z,16.50
2022-09-23T00:14:17.510Z,16.10
2022-09-23T00:14:28.457Z,15.70
2022-09-23T00:14:37.603Z,15.70
2022-09-23T00:14:47.732Z,15.90
2022-09-23T00:14:57.841Z,16.80
2022-09-23T00:15:07.921Z,17.20
2022-09-23T00:15:17.993Z,17.60
2022-09-23T00:15:28.072Z,17.20
2022-09-23T00:15:38.171Z,16.50
2022-09-23T00:15:48.249Z,16.30
2022-09-23T00:15:58.322Z,16.20
2022-09-23T00:16:08.422Z,15.80
2022-09-23T00:16:18.595Z,15.60
2022-09-23T00:16:28.787Z,15.70
2022-09-23T00:16:38.764Z,16.00
2022-09-23T00:16:48.891Z,16.80
2022-09-23T00:16:59.065Z,16.60
2022-09-23T00:17:09.198Z,16.40
2022-09-23T00:17:19.316Z,15.70
2022-09-23T00:17:29.412Z,16.40
2022-09-23T00:17:39.505Z,17.10
2022-09-23T00:17:49.602Z,16.80
2022-09-23T00:17:59.692Z,15.60
2022-09-23T00:18:09.780Z,15.40
2022-09-23T00:18:19.860Z,15.60
2022-09-23T00:18:29.942Z,15.40
2022-09-23T00:18:40.044Z,14.90
2022-09-23T00:18:50.133Z,14.60
2022-09-23T00:19:00.211Z,14.70
2022-09-23T00:19:10.531Z,14.20
2022-09-23T00:19:20.460Z,13.50
2022-09-23T00:19:30.562Z,12.40
2022-09-23T00:19:40.657Z,11.70
2022-09-23T00:19:50.742Z,11.70
2022-09-23T00:20:00.830Z,11.60
2022-09-23T00:20:10.923Z,11.60
2022-09-23T00:20:21.029Z,11.20
2022-09-23T00:20:31.141Z,11.20
2022-09-23T00:20:41.231Z,11.00
2022-09-23T00:20:51.321Z,11.40
2022-09-23T00:21:01.402Z,11.30
2022-09-23T00:21:11.483Z,11.70
2022-09-23T00:21:21.594Z,11.50
2022-09-23T00:21:31.691Z,11.50
2022-09-23T00:21:41.782Z,11.30
2022-09-23T00:21:51.871Z,11.40
2022-09-23T00:22:01.964Z,11.10
2022-09-23T00:22:12.079Z,10.40
2022-09-23T00:22:22.171Z,10.10
2022-09-23T00:22:32.262Z,10.10
2022-09-23T00:22:42.362Z,10.90
2022-09-23T00:22:52.452Z,11.00
2022-09-23T00:23:02.446Z,11.20
2022-09-23T00:23:12.529Z,11.10
2022-09-23T00:23:22.619Z,10.90
2022-09-23T00:23:32.752Z,10.80
2022-09-23T00:23:42.950Z,10.50
2022-09-23T00:23:52.932Z,10.20
2022-09-23T00:24:03.021Z,10.40
2022-09-23T00:24:13.130Z,10.10
2022-09-23T00:24:23.242Z,10.30
2022-09-23T00:24:33.341Z,10.10
2022-09-23T00:24:43.439Z,10.30
2022-09-23T00:24:53.554Z,10.80
2022-09-23T00:25:03.695Z,10.60
2022-09-23T00:25:13.818Z,10.50
2022-09-23T00:25:23.921Z,10.10
2022-09-23T00:25:34.015Z,10.10
2022-09-23T00:25:44.112Z,10.30
2022-09-23T00:25:54.223Z,10.30
2022-09-23T00:26:04.319Z,10.30
2022-09-23T00:26:14.421Z,10.40
2022-09-23T00:26:24.531Z,10.50
2022-09-23T00:26:34.603Z,10.90
2022-09-23T00:26:44.710Z,10.80
2022-09-23T00:26:54.791Z,10.50
2022-09-23T00:27:04.872Z,10.70
2022-09-23T00:27:14.951Z,10.90
2022-09-23T00:27:25.039Z,11.20
2022-09-23T00:27:35.111Z,10.90
2022-09-23T00:27:45.200Z,10.30
2022-09-23T00:27:55.281Z,10.30
2022-09-23T00:28:05.381Z,10.30
2022-09-23T00:28:15.532Z,10.80
2022-09-23T00:28:25.609Z,10.70
2022-09-23T00:28:35.705Z,10.60
2022-09-23T00:28:45.812Z,10.60
2022-09-23T00:28:55.916Z,10.80
2022-09-23T00:29:06.008Z,11.10
2022-09-23T00:29:16.108Z,11.40
2022-09-23T00:29:26.192Z,11.80
2022-09-23T00:29:36.271Z,11.30
2022-09-23T00:29:46.341Z,10.90
2022-09-23T00:29:56.422Z,10.60
2022-09-23T00:30:06.503Z,10.80
2022-09-23T00:30:16.622Z,11.30
2022-09-23T00:30:26.781Z,10.90
2022-09-23T00:30:36.963Z,11.00
2022-09-23T00:30:46.905Z,10.60
2022-09-23T00:30:57.159Z,10.90
2022-09-23T00:31:07.102Z,11.00
2022-09-23T00:31:17.252Z,11.00
2022-09-23T00:31:27.254Z,10.70
2022-09-23T00:31:37.308Z,10.60
2022-09-23T00:31:47.391Z,10.70
2022-09-23T00:31:57.511Z,10.20
2022-09-23T00:32:07.595Z,10.10
2022-09-23T00:32:17.680Z,10.40
2022-09-23T00:32:27.761Z,11.00
2022-09-23T00:32:37.850Z,10.70
2022-09-23T00:32:47.959Z,10.60
2022-09-23T00:32:58.041Z,10.10
2022-09-23T00:33:08.130Z,10.30
2022-09-23T00:33:18.212Z,10.00
2022-09-23T00:33:28.302Z,10.20
2022-09-23T00:33:38.398Z,9.50
2022-09-23T00:33:48.491Z,9.20
2022-09-23T00:33:58.582Z,9.50
2022-09-23T00:34:08.671Z,10.30
2022-09-23T00:34:18.771Z,10.70
2022-09-23T00:34:28.873Z,10.70
2022-09-23T00:34:38.961Z,10.40
2022-09-23T00:34:49.072Z,10.50
2022-09-23T00:34:59.171Z,10.70
2022-09-23T00:35:09.267Z,10.50
2022-09-23T00:35:19.369Z,10.40
2022-09-23T00:35:29.474Z,10.10
2022-09-23T00:35:39.561Z,10.00
2022-09-23T00:35:49.650Z,9.80
2022-09-23T00:35:59.739Z,9.90
2022-09-23T00:36:09.852Z,9.90
2022-09-23T00:36:19.960Z,9.90
2022-09-23T00:36:30.054Z,9.90
2022-09-23T00:36:40.157Z,10.20
2022-09-23T00:36:50.290Z,10.30
2022-09-23T00:37:00.383Z,9.80
2022-09-23T00:37:10.464Z,9.90
2022-09-23T00:37:20.550Z,10.40
2022-09-23T00:37:30.639Z,11.00
2022-09-23T00:37:40.749Z,11.10
2022-09-23T00:37:50.841Z,10.30
2022-09-23T00:38:00.952Z,10.20
2022-09-23T00:38:11.050Z,9.60
2022-09-23T00:38:21.141Z,9.60
2022-09-23T00:38:31.230Z,9.80
2022-09-23T00:38:41.329Z,9.70
2022-09-23T00:38:51.410Z,9.80
2022-09-23T00:39:03.304Z,9.50
2022-09-23T00:39:11.532Z,9.70
2022-09-23T00:39:21.622Z,9.60
2022-09-23T00:39:31.691Z,9.00
2022-09-23T00:39:41.779Z,8.90
2022-09-23T00:39:51.870Z,9.40
2022-09-23T00:40:01.963Z,9.80
2022-09-23T00:40:12.084Z,10.10
2022-09-23T00:40:22.214Z,10.00
2022-09-23T00:40:32.406Z,10.10
2022-09-23T00:40:42.534Z,9.50
2022-09-23T00:40:52.660Z,9.40
2022-09-23T00:41:02.747Z,8.90
2022-09-23T00:41:12.851Z,8.90
2022-09-23T00:41:22.990Z,9.10
2022-09-23T00:41:33.108Z,9.60
2022-09-23T00:41:43.212Z,9.70
2022-09-23T00:41:53.281Z,9.60
2022-09-23T00:42:03.361Z,9.50
2022-09-23T00:42:13.451Z,9.40
2022-09-23T00:42:23.539Z,9.10
2022-09-23T00:42:33.670Z,9.60
2022-09-23T00:42:43.750Z,9.90
2022-09-23T00:42:53.831Z,9.50
2022-09-23T00:43:03.919Z,8.50
2022-09-23T00:43:13.993Z,8.50
2022-09-23T00:43:24.082Z,8.60
2022-09-23T00:43:34.168Z,8.80
2022-09-23T00:43:44.240Z,8.20
2022-09-23T00:43:54.330Z,8.80
2022-09-23T00:44:04.418Z,9.00
2022-09-23T00:44:14.529Z,9.40
2022-09-23T00:44:24.610Z,8.80
2022-09-23T00:44:34.682Z,9.00
2022-09-23T00:44:44.784Z,8.70
2022-09-23T00:44:54.867Z,8.50
2022-09-23T00:45:04.930Z,8.10
2022-09-23T00:45:15.019Z,8.50
2022-09-23T00:45:25.121Z,8.70
2022-09-23T00:45:35.218Z,9.00
2022-09-23T00:45:45.331Z,8.60
2022-09-23T00:45:55.504Z,8.60
2022-09-23T00:46:05.456Z,8.70
2022-09-23T00:46:15.630Z,8.70
2022-09-23T00:46:25.801Z,8.70
2022-09-23T00:46:35.889Z,8.40
2022-09-23T00:46:45.950Z,9.00
2022-09-23T00:46:56.020Z,9.00
2022-09-23T00:47:06.089Z,9.00
2022-09-23T00:47:16.160Z,8.70
2022-09-23T00:47:26.238Z,8.90
2022-09-23T00:47:36.310Z,8.60
2022-09-23T00:47:46.381Z,8.50
2022-09-23T00:47:56.490Z,8.10
2022-09-23T00:48:06.570Z,8.40
2022-09-23T00:48:16.659Z,8.90
2022-09-23T00:48:26.739Z,9.00
2022-09-23T00:48:36.809Z,8.70
2022-09-23T00:48:46.899Z,8.20
2022-09-23T00:48:56.990Z,8.50
2022-09-23T00:49:07.049Z,9.00
2022-09-23T00:49:17.177Z,9.50
2022-09-23T00:49:27.260Z,8.90
2022-09-23T00:49:37.340Z,8.10
2022-09-23T00:49:47.412Z,8.10
2022-09-23T00:49:57.489Z,8.40
2022-09-23T00:50:07.569Z,9.40
2022-09-23T00:50:17.660Z,9.10
2022-09-23T00:50:27.743Z,8.90
2022-09-23T00:50:37.827Z,8.70
2022-09-23T00:50:47.951Z,8.70
2022-09-23T00:50:58.040Z,8.90
2022-09-23T00:51:08.169Z,8.50
2022-09-23T00:51:18.260Z,8.90
2022-09-23T00:51:28.374Z,9.10
2022-09-23T00:51:38.458Z,9.80
2022-09-23T00:51:48.553Z,9.30
2022-09-23T00:51:58.630Z,9.10
2022-09-23T00:52:08.724Z,9.10
2022-09-23T00:52:18.799Z,9.10
2022-09-23T00:52:28.890Z,8.80
2022-09-23T00:52:38.978Z,8.10
2022-09-23T00:52:49.136Z,7.40
2022-09-23T00:52:59.219Z,8.20
2022-09-23T00:53:09.312Z,8.40
2022-09-23T00:53:19.401Z,8.80
2022-09-23T00:53:29.501Z,8.30
2022-09-23T00:53:39.587Z,8.40
2022-09-23T00:53:49.669Z,8.60
2022-09-23T00:53:59.749Z,8.90
2022-09-23T00:54:09.866Z,8.70
2022-09-23T00:54:19.937Z,8.90
2022-09-23T00:54:30.021Z,8.80
2022-09-23T00:54:40.130Z,8.90
2022-09-23T00:54:50.208Z,8.40
2022-09-23T00:55:00.286Z,8.00
2022-09-23T00:55:10.378Z,8.40
2022-09-23T00:55:20.506Z,8.60
2022-09-23T00:55:30.588Z,9.60
2022-09-23T00:55:40.677Z,10.50
2022-09-23T00:55:50.780Z,11.10
2022-09-23T00:56:00.859Z,11.70
2022-09-23T00:56:10.957Z,11.60
2022-09-23T00:56:21.058Z,11.50
2022-09-23T00:56:31.164Z,10.80
2022-09-23T00:56:41.279Z,10.10
2022-09-23T00:56:51.360Z,9.70
2022-09-23T00:57:01.458Z,9.50
2022-09-23T00:57:11.548Z,9.80
2022-09-23T00:57:21.639Z,9.80
2022-09-23T00:57:31.731Z,9.60
2022-09-23T00:57:41.819Z,9.10
2022-09-23T00:57:51.950Z,9.40
2022-09-23T00:58:02.039Z,9.40
2022-09-23T00:58:12.128Z,9.70
2022-09-23T00:58:22.216Z,9.10
2022-09-23T00:58:32.300Z,9.40
2022-09-23T00:58:42.388Z,9.60
2022-09-23T00:58:52.478Z,9.80
2022-09-23T00:59:02.578Z,9.90
2022-09-23T00:59:12.679Z,9.70
2022-09-23T00:59:22.767Z,9.60
2022-09-23T00:59:32.847Z,9.00
2022-09-23T00:59:42.938Z,9.10
2022-09-23T00:59:53.025Z,9.30
2022-09-23T01:00:03.134Z,10.10
2022-09-23T01:00:13.236Z,9.10
2022-09-23T01:00:23.385Z,9.30
2022-09-23T01:00:33.438Z,8.60
2022-09-23T01:00:43.521Z,9.10
2022-09-23T01:00:53.656Z,8.80
2022-09-23T01:01:03.670Z,9.00
2022-09-23T01:01:13.792Z,8.70
2022-09-23T01:01:23.910Z,8.60
2022-09-23T01:01:34.035Z,8.80
2022-09-23T01:01:44.241Z,8.90
2022-09-23T01:01:54.219Z,8.70
2022-09-23T01:02:04.359Z,9.10
2022-09-23T01:02:14.465Z,9.00
2022-09-23T01:02:24.568Z,9.00
2022-09-23T01:02:34.707Z,8.10
2022-09-23T01:02:44.745Z,8.10
2022-09-23T01:02:54.702Z,7.90
2022-09-23T01:03:04.779Z,8.20
2022-09-23T01:03:14.849Z,8.10
2022-09-23T01:03:24.940Z,8.30
2022-09-23T01:03:35.028Z,8.60
2022-09-23T01:03:45.102Z,8.60
2022-09-23T01:03:55.171Z,8.80
2022-09-23T01:04:05.255Z,8.40
2022-09-23T01:04:15.328Z,8.90
2022-09-23T01:04:25.417Z,8.90
2022-09-23T01:04:35.493Z,9.00
2022-09-23T01:04:45.577Z,8.90
2022-09-23T01:04:55.691Z,8.60
2022-09-23T01:05:05.788Z,9.00
2022-09-23T01:05:15.951Z,9.10
2022-09-23T01:05:26.048Z,9.00
2022-09-23T01:05:36.128Z,8.80
